Terminal Aerodrome Forecast
Issued by NWS

Home | Current Version | Previous Version | Text Only | Print | Product List | Glossary On
Versions: 1 2 3 4 5 6 7 8 9 10 11 12
000
FTAK31 PAJN 161100
TAFAWG
TAF
PAWG 161140Z 1612/1712 13004KT P6SM SCT040 OVC080
     FM161800 10006KT P6SM SCT040 OVC080
     FM170100 10009KT P6SM BKN050 BKN100
     FM170700 13010KT P6SM -RA OVC050
      AMD LTD TO CLD VIS AND WIND TIL 161500=

USA.gov is the U.S. government's official web portal to all federal, state and local government web resources and services.